sensor_id;sensor_type;location;lat;lon;timestamp;pressure;altitude;pressure_sealevel;temperature;humidity
7760;BME280;3924;48.830;9.262;2022-08-19T00:01:23;98089.50;;;22.10;64.04
7760;BME280;3924;48.830;9.262;2022-08-19T00:03:59;98093.75;;;22.04;64.01
7760;BME280;3924;48.830;9.262;2022-08-19T00:06:27;98086.25;;;22.05;63.70
7760;BME280;3924;48.830;9.262;2022-08-19T00:08:55;98089.41;;;22.03;63.99
7760;BME280;3924;48.830;9.262;2022-08-19T00:11:22;98081.47;;;22.02;63.87
7760;BME280;3924;48.830;9.262;2022-08-19T00:13:51;98090.16;;;22.00;64.05
7760;BME280;3924;48.830;9.262;2022-08-19T00:16:19;98092.50;;;21.98;63.67
7760;BME280;3924;48.830;9.262;2022-08-19T00:18:51;98103.16;;;21.96;64.35
7760;BME280;3924;48.830;9.262;2022-08-19T00:21:18;98105.09;;;21.96;64.27
7760;BME280;3924;48.830;9.262;2022-08-19T00:23:44;98095.59;;;21.93;64.12
7760;BME280;3924;48.830;9.262;2022-08-19T00:26:11;98089.28;;;21.93;64.03
7760;BME280;3924;48.830;9.262;2022-08-19T00:28:38;98091.25;;;21.92;64.40
7760;BME280;3924;48.830;9.262;2022-08-19T00:31:06;98086.16;;;21.94;64.43
7760;BME280;3924;48.830;9.262;2022-08-19T00:33:33;98084.63;;;21.97;64.35
7760;BME280;3924;48.830;9.262;2022-08-19T00:36:02;98080.69;;;21.98;64.70
7760;BME280;3924;48.830;9.262;2022-08-19T00:38:30;98078.31;;;21.96;64.86
7760;BME280;3924;48.830;9.262;2022-08-19T00:41:06;98073.13;;;21.91;64.73
7760;BME280;3924;48.830;9.262;2022-08-19T00:43:33;98069.50;;;21.87;64.69
7760;BME280;3924;48.830;9.262;2022-08-19T00:45:59;98068.34;;;21.88;65.20
7760;BME280;3924;48.830;9.262;2022-08-19T00:48:27;98071.09;;;21.88;64.71
7760;BME280;3924;48.830;9.262;2022-08-19T00:50:54;98079.03;;;21.90;64.30
7760;BME280;3924;48.830;9.262;2022-08-19T00:53:24;98079.03;;;21.90;64.89
7760;BME280;3924;48.830;9.262;2022-08-19T00:55:53;98074.28;;;21.90;65.02
7760;BME280;3924;48.830;9.262;2022-08-19T00:58:24;98080.97;;;21.89;64.33
7760;BME280;3924;48.830;9.262;2022-08-19T01:00:53;98082.13;;;21.88;65.14
7760;BME280;3924;48.830;9.262;2022-08-19T01:03:21;98084.09;;;21.88;64.26
7760;BME280;3924;48.830;9.262;2022-08-19T01:05:49;98078.97;;;21.86;65.01
7760;BME280;3924;48.830;9.262;2022-08-19T01:08:18;98084.09;;;21.84;64.74
7760;BME280;3924;48.830;9.262;2022-08-19T01:10:48;98076.53;;;21.81;65.08
7760;BME280;3924;48.830;9.262;2022-08-19T01:13:17;98078.13;;;21.82;64.86
7760;BME280;3924;48.830;9.262;2022-08-19T01:15:48;98084.81;;;21.81;65.11
7760;BME280;3924;48.830;9.262;2022-08-19T01:18:17;98076.91;;;21.76;64.73
7760;BME280;3924;48.830;9.262;2022-08-19T01:20:45;98070.16;;;21.70;65.28
7760;BME280;3924;48.830;9.262;2022-08-19T01:23:12;98069.72;;;21.68;65.74
7760;BME280;3924;48.830;9.262;2022-08-19T01:25:51;98074.81;;;21.66;65.11
7760;BME280;3924;48.830;9.262;2022-08-19T01:28:28;98081.91;;;21.67;65.16
7760;BME280;3924;48.830;9.262;2022-08-19T01:31:07;98083.09;;;21.66;65.62
7760;BME280;3924;48.830;9.262;2022-08-19T01:33:34;98078.75;;;21.65;65.22
7760;BME280;3924;48.830;9.262;2022-08-19T01:36:11;98074.03;;;21.65;65.03
7760;BME280;3924;48.830;9.262;2022-08-19T01:38:41;98067.72;;;21.65;65.34
7760;BME280;3924;48.830;9.262;2022-08-19T01:41:11;98067.72;;;21.65;65.27
7760;BME280;3924;48.830;9.262;2022-08-19T01:43:38;98076.38;;;21.63;65.53
7760;BME280;3924;48.830;9.262;2022-08-19T01:46:24;98081.06;;;21.59;65.71
7760;BME280;3924;48.830;9.262;2022-08-19T01:48:51;98076.66;;;21.54;65.56
7760;BME280;3924;48.830;9.262;2022-08-19T01:51:17;98075.44;;;21.52;66.31
7760;BME280;3924;48.830;9.262;2022-08-19T01:53:47;98071.91;;;21.51;66.29
7760;BME280;3924;48.830;9.262;2022-08-19T01:56:14;98067.16;;;21.48;66.04
7760;BME280;3924;48.830;9.262;2022-08-19T01:58:45;98068.28;;;21.47;66.11
7760;BME280;3924;48.830;9.262;2022-08-19T02:01:13;98076.16;;;21.45;66.09
7760;BME280;3924;48.830;9.262;2022-08-19T02:03:40;98073.03;;;21.47;66.20
7760;BME280;3924;48.830;9.262;2022-08-19T02:06:06;98072.22;;;21.46;66.46
7760;BME280;3924;48.830;9.262;2022-08-19T02:08:35;98069.06;;;21.44;66.28
7760;BME280;3924;48.830;9.262;2022-08-19T02:11:03;98082.44;;;21.42;66.33
7760;BME280;3924;48.830;9.262;2022-08-19T02:13:30;98071.34;;;21.39;66.65
7760;BME280;3924;48.830;9.262;2022-08-19T02:15:56;98086.31;;;21.38;66.58
7760;BME280;3924;48.830;9.262;2022-08-19T02:18:25;98072.91;;;21.36;66.29
7760;BME280;3924;48.830;9.262;2022-08-19T02:20:53;98080.75;;;21.34;66.35
7760;BME280;3924;48.830;9.262;2022-08-19T02:23:20;98073.66;;;21.33;66.70
7760;BME280;3924;48.830;9.262;2022-08-19T02:25:47;98079.53;;;21.32;66.90
7760;BME280;3924;48.830;9.262;2022-08-19T02:28:15;98084.66;;;21.29;66.80
7760;BME280;3924;48.830;9.262;2022-08-19T02:30:45;98084.28;;;21.31;66.85
7760;BME280;3924;48.830;9.262;2022-08-19T02:33:12;98092.53;;;21.31;66.84
7760;BME280;3924;48.830;9.262;2022-08-19T02:35:42;98087.78;;;21.28;66.87
7760;BME280;3924;48.830;9.262;2022-08-19T02:38:09;98089.28;;;21.25;67.30
7760;BME280;3924;48.830;9.262;2022-08-19T02:41:00;98074.28;;;21.23;67.05
7760;BME280;3924;48.830;9.262;2022-08-19T02:43:29;98079.81;;;21.23;66.69
7760;BME280;3924;48.830;9.262;2022-08-19T02:45:59;98072.66;;;21.18;67.06
7760;BME280;3924;48.830;9.262;2022-08-19T02:48:26;98079.34;;;21.17;67.37
7760;BME280;3924;48.830;9.262;2022-08-19T02:50:53;98075.38;;;21.15;67.24
7760;BME280;3924;48.830;9.262;2022-08-19T02:53:25;98077.69;;;21.13;67.48
7760;BME280;3924;48.830;9.262;2022-08-19T02:55:53;98079.25;;;21.10;67.97
7760;BME280;3924;48.830;9.262;2022-08-19T02:58:20;98065.00;;;21.04;67.41
7760;BME280;3924;48.830;9.262;2022-08-19T03:00:51;98074.81;;;21.02;67.87
7760;BME280;3924;48.830;9.262;2022-08-19T03:03:19;98063.38;;;21.00;67.83
7760;BME280;3924;48.830;9.262;2022-08-19T03:05:46;98067.66;;;20.97;68.04
7760;BME280;3924;48.830;9.262;2022-08-19T03:08:23;98067.66;;;20.97;68.15
7760;BME280;3924;48.830;9.262;2022-08-19T03:10:50;98070.41;;;20.97;68.15
7760;BME280;3924;48.830;9.262;2022-08-19T03:13:17;98073.97;;;20.98;68.24
7760;BME280;3924;48.830;9.262;2022-08-19T03:15:46;98079.44;;;20.94;68.19
7760;BME280;3924;48.830;9.262;2022-08-19T03:18:14;98074.72;;;20.95;67.76
7760;BME280;3924;48.830;9.262;2022-08-19T03:20:45;98082.19;;;20.94;68.15
7760;BME280;3924;48.830;9.262;2022-08-19T03:23:13;98081.41;;;20.94;68.21
7760;BME280;3924;48.830;9.262;2022-08-19T03:25:41;98090.03;;;20.92;68.41
7760;BME280;3924;48.830;9.262;2022-08-19T03:28:10;98087.97;;;20.86;68.15
7760;BME280;3924;48.830;9.262;2022-08-19T03:30:38;98085.56;;;20.84;68.19
7760;BME280;3924;48.830;9.262;2022-08-19T03:33:10;98092.66;;;20.85;68.20
7760;BME280;3924;48.830;9.262;2022-08-19T03:35:43;98093.84;;;20.84;68.78
7760;BME280;3924;48.830;9.262;2022-08-19T03:38:11;98083.59;;;20.81;68.72
7760;BME280;3924;48.830;9.262;2022-08-19T03:40:37;98094.97;;;20.80;68.81
7760;BME280;3924;48.830;9.262;2022-08-19T03:43:04;98098.09;;;20.78;68.90
7760;BME280;3924;48.830;9.262;2022-08-19T03:45:31;98089.41;;;20.76;69.10
7760;BME280;3924;48.830;9.262;2022-08-19T03:47:58;98090.16;;;20.73;68.76
7760;BME280;3924;48.830;9.262;2022-08-19T03:50:24;98094.91;;;20.76;69.17
7760;BME280;3924;48.830;9.262;2022-08-19T03:52:52;98087.03;;;20.74;68.84
7760;BME280;3924;48.830;9.262;2022-08-19T03:55:19;98088.53;;;20.72;69.38
7760;BME280;3924;48.830;9.262;2022-08-19T03:57:45;98094.00;;;20.68;69.44
7760;BME280;3924;48.830;9.262;2022-08-19T04:00:14;98094.81;;;20.69;68.90
7760;BME280;3924;48.830;9.262;2022-08-19T04:02:41;98098.72;;;20.68;69.42
7760;BME280;3924;48.830;9.262;2022-08-19T04:05:28;98097.16;;;20.67;69.51
7760;BME280;3924;48.830;9.262;2022-08-19T04:07:54;98092.06;;;20.69;69.25
7760;BME280;3924;48.830;9.262;2022-08-19T04:10:26;98092.47;;;20.71;69.41
7760;BME280;3924;48.830;9.262;2022-08-19T04:12:53;98095.97;;;20.68;69.21
7760;BME280;3924;48.830;9.262;2022-08-19T04:15:20;98096.41;;;20.70;69.42
7760;BME280;3924;48.830;9.262;2022-08-19T04:17:47;98093.22;;;20.68;69.39
7760;BME280;3924;48.830;9.262;2022-08-19T04:20:13;98093.22;;;20.68;69.25
7760;BME280;3924;48.830;9.262;2022-08-19T04:22:40;98095.56;;;20.66;69.62
7760;BME280;3924;48.830;9.262;2022-08-19T04:25:07;98097.88;;;20.64;69.42
7760;BME280;3924;48.830;9.262;2022-08-19T04:27:33;98090.38;;;20.61;69.64
7760;BME280;3924;48.830;9.262;2022-08-19T04:30:00;98086.03;;;20.60;69.59
7760;BME280;3924;48.830;9.262;2022-08-19T04:32:26;98086.81;;;20.60;69.78
7760;BME280;3924;48.830;9.262;2022-08-19T04:34:53;98084.41;;;20.59;70.31
7760;BME280;3924;48.830;9.262;2022-08-19T04:37:43;98093.03;;;20.57;69.85
7760;BME280;3924;48.830;9.262;2022-08-19T04:40:09;98086.72;;;20.53;69.81
7760;BME280;3924;48.830;9.262;2022-08-19T04:42:54;98083.88;;;20.49;69.93
7760;BME280;3924;48.830;9.262;2022-08-19T04:45:21;98089.38;;;20.49;69.90
7760;BME280;3924;48.830;9.262;2022-08-19T04:47:49;98091.41;;;20.53;69.92
7760;BME280;3924;48.830;9.262;2022-08-19T04:50:35;98103.56;;;20.52;70.52
7760;BME280;3924;48.830;9.262;2022-08-19T04:53:02;98093.31;;;20.48;70.13
7760;BME280;3924;48.830;9.262;2022-08-19T04:55:29;98102.38;;;20.49;70.20
7760;BME280;3924;48.830;9.262;2022-08-19T04:57:55;98098.81;;;20.48;70.09
7760;BME280;3924;48.830;9.262;2022-08-19T05:00:22;98099.63;;;20.49;70.23
7760;BME280;3924;48.830;9.262;2022-08-19T05:02:49;98104.75;;;20.51;70.30
7760;BME280;3924;48.830;9.262;2022-08-19T05:05:16;98109.41;;;20.46;70.00
7760;BME280;3924;48.830;9.262;2022-08-19T05:07:42;98109.41;;;20.46;70.18
7760;BME280;3924;48.830;9.262;2022-08-19T05:10:09;98109.69;;;20.41;70.26
7760;BME280;3924;48.830;9.262;2022-08-19T05:12:36;98109.69;;;20.41;70.59
7760;BME280;3924;48.830;9.262;2022-08-19T05:15:04;98113.34;;;20.45;70.63
7760;BME280;3924;48.830;9.262;2022-08-19T05:17:31;98125.16;;;20.46;70.27
7760;BME280;3924;48.830;9.262;2022-08-19T05:20:05;98132.28;;;20.51;70.15
7760;BME280;3924;48.830;9.262;2022-08-19T05:22:51;98139.03;;;20.53;70.35
7760;BME280;3924;48.830;9.262;2022-08-19T05:25:20;98142.50;;;20.50;70.35
7760;BME280;3924;48.830;9.262;2022-08-19T05:27:47;98155.06;;;20.47;70.25
7760;BME280;3924;48.830;9.262;2022-08-19T05:30:14;98161.38;;;20.48;70.66
7760;BME280;3924;48.830;9.262;2022-08-19T05:32:41;98175.19;;;20.52;70.48
7760;BME280;3924;48.830;9.262;2022-08-19T05:35:08;98175.69;;;20.57;70.35
7760;BME280;3924;48.830;9.262;2022-08-19T05:37:35;98187.50;;;20.58;70.27
7760;BME280;3924;48.830;9.262;2022-08-19T05:40:03;98195.34;;;20.56;70.06
7760;BME280;3924;48.830;9.262;2022-08-19T05:42:30;98194.13;;;20.53;70.15
7760;BME280;3924;48.830;9.262;2022-08-19T05:44:56;98204.69;;;20.51;70.55
7760;BME280;3924;48.830;9.262;2022-08-19T05:47:23;98196.44;;;20.51;70.42
7760;BME280;3924;48.830;9.262;2022-08-19T05:49:50;98198.03;;;20.52;70.74
7760;BME280;3924;48.830;9.262;2022-08-19T05:52:17;98188.25;;;20.55;70.51
7760;BME280;3924;48.830;9.262;2022-08-19T05:54:52;98191.00;;;20.55;70.31
7760;BME280;3924;48.830;9.262;2022-08-19T05:57:21;98186.69;;;20.57;70.67
7760;BME280;3924;48.830;9.262;2022-08-19T05:59:48;98188.25;;;20.55;70.55
7760;BME280;3924;48.830;9.262;2022-08-19T06:02:24;98193.75;;;20.55;70.36
7760;BME280;3924;48.830;9.262;2022-08-19T06:04:51;98192.16;;;20.54;70.63
7760;BME280;3924;48.830;9.262;2022-08-19T06:07:17;98186.66;;;20.54;70.45
7760;BME280;3924;48.830;9.262;2022-08-19T06:09:44;98200.06;;;20.55;70.59
7760;BME280;3924;48.830;9.262;2022-08-19T06:12:26;98196.91;;;20.57;70.45
7760;BME280;3924;48.830;9.262;2022-08-19T06:14:56;98190.63;;;20.56;70.89
7760;BME280;3924;48.830;9.262;2022-08-19T06:17:28;98203.19;;;20.54;70.57
7760;BME280;3924;48.830;9.262;2022-08-19T06:19:56;98196.09;;;20.53;70.73
7760;BME280;3924;48.830;9.262;2022-08-19T06:22:22;98196.81;;;20.49;71.22
7760;BME280;3924;48.830;9.262;2022-08-19T06:24:49;98194.03;;;20.49;70.86
7760;BME280;3924;48.830;9.262;2022-08-19T06:27:19;98199.50;;;20.46;70.61
7760;BME280;3924;48.830;9.262;2022-08-19T06:29:46;98195.97;;;20.45;71.17
7760;BME280;3924;48.830;9.262;2022-08-19T06:32:15;98196.75;;;20.46;70.68
7760;BME280;3924;48.830;9.262;2022-08-19T06:34:42;98195.13;;;20.45;70.93
7760;BME280;3924;48.830;9.262;2022-08-19T06:37:08;98192.47;;;20.48;71.08
7760;BME280;3924;48.830;9.262;2022-08-19T06:39:37;98190.50;;;20.49;70.93
7760;BME280;3924;48.830;9.262;2022-08-19T06:42:05;98197.59;;;20.50;71.19
7760;BME280;3924;48.830;9.262;2022-08-19T06:44:36;98192.88;;;20.51;71.01
7760;BME280;3924;48.830;9.262;2022-08-19T06:47:11;98196.81;;;20.49;71.39
7760;BME280;3924;48.830;9.262;2022-08-19T06:49:48;98198.38;;;20.51;70.95
7760;BME280;3924;48.830;9.262;2022-08-19T06:52:15;98196.00;;;20.49;71.35
7760;BME280;3924;48.830;9.262;2022-08-19T06:54:42;98196.75;;;20.46;71.48
7760;BME280;3924;48.830;9.262;2022-08-19T06:57:23;98197.88;;;20.45;71.51
7760;BME280;3924;48.830;9.262;2022-08-19T06:59:50;98193.22;;;20.45;71.35
7760;BME280;3924;48.830;9.262;2022-08-19T07:02:16;98201.16;;;20.51;71.38
7760;BME280;3924;48.830;9.262;2022-08-19T07:04:44;98198.09;;;20.56;71.25
7760;BME280;3924;48.830;9.262;2022-08-19T07:07:12;98205.59;;;20.59;70.85
7760;BME280;3924;48.830;9.262;2022-08-19T07:09:47;98203.00;;;20.66;71.17
7760;BME280;3924;48.830;9.262;2022-08-19T07:12:24;98206.91;;;20.65;70.71
7760;BME280;3924;48.830;9.262;2022-08-19T07:14:51;98203.72;;;20.63;71.41
7760;BME280;3924;48.830;9.262;2022-08-19T07:17:19;98208.06;;;20.64;71.90
7760;BME280;3924;48.830;9.262;2022-08-19T07:19:47;98212.06;;;20.66;71.29
7760;BME280;3924;48.830;9.262;2022-08-19T07:22:14;98212.06;;;20.66;71.68
7760;BME280;3924;48.830;9.262;2022-08-19T07:24:42;98212.09;;;20.70;71.67
7760;BME280;3924;48.830;9.262;2022-08-19T07:27:17;98206.97;;;20.68;71.06
7760;BME280;3924;48.830;9.262;2022-08-19T07:29:52;98218.47;;;20.74;71.82
7760;BME280;3924;48.830;9.262;2022-08-19T07:32:22;98207.50;;;20.77;71.38
7760;BME280;3924;48.830;9.262;2022-08-19T07:34:48;98208.31;;;20.78;71.47
7760;BME280;3924;48.830;9.262;2022-08-19T07:37:15;98208.31;;;20.78;71.26
7760;BME280;3924;48.830;9.262;2022-08-19T07:39:42;98219.41;;;20.82;70.57
7760;BME280;3924;48.830;9.262;2022-08-19T07:42:10;98218.28;;;20.86;71.60
7760;BME280;3924;48.830;9.262;2022-08-19T07:44:39;98220.69;;;20.88;71.19
7760;BME280;3924;48.830;9.262;2022-08-19T07:47:06;98218.28;;;20.86;71.43
7760;BME280;3924;48.830;9.262;2022-08-19T07:49:53;98227.28;;;20.83;71.32
7760;BME280;3924;48.830;9.262;2022-08-19T07:52:19;98222.81;;;20.75;71.79
7760;BME280;3924;48.830;9.262;2022-08-19T07:54:46;98220.78;;;20.72;71.59
7760;BME280;3924;48.830;9.262;2022-08-19T07:57:12;98223.88;;;20.67;71.62
7760;BME280;3924;48.830;9.262;2022-08-19T07:59:39;98225.47;;;20.68;71.86
7760;BME280;3924;48.830;9.262;2022-08-19T08:02:06;98236.47;;;20.68;71.69
7760;BME280;3924;48.830;9.262;2022-08-19T08:04:34;98222.72;;;20.68;72.27
7760;BME280;3924;48.830;9.262;2022-08-19T08:07:19;98226.25;;;20.68;71.98
7760;BME280;3924;48.830;9.262;2022-08-19T08:10:06;98225.47;;;20.68;72.08
7760;BME280;3924;48.830;9.262;2022-08-19T08:12:47;98232.47;;;20.65;72.13
7760;BME280;3924;48.830;9.262;2022-08-19T08:15:34;98233.31;;;20.66;72.32
7760;BME280;3924;48.830;9.262;2022-08-19T08:18:07;98239.91;;;20.61;72.18
7760;BME280;3924;48.830;9.262;2022-08-19T08:20:34;98236.28;;;20.57;72.38
7760;BME280;3924;48.830;9.262;2022-08-19T08:23:01;98237.53;;;20.60;71.98
7760;BME280;3924;48.830;9.262;2022-08-19T08:25:46;98239.53;;;20.63;72.15
7760;BME280;3924;48.830;9.262;2022-08-19T08:28:15;98230.91;;;20.64;72.07
7760;BME280;3924;48.830;9.262;2022-08-19T08:30:43;98240.44;;;20.70;72.18
7760;BME280;3924;48.830;9.262;2022-08-19T08:33:11;98240.53;;;20.74;72.13
7760;BME280;3924;48.830;9.262;2022-08-19T08:35:40;98241.38;;;20.78;72.01
7760;BME280;3924;48.830;9.262;2022-08-19T08:38:12;98235.13;;;20.81;72.22
7760;BME280;3924;48.830;9.262;2022-08-19T08:43:24;98230.56;;;20.92;71.63
7760;BME280;3924;48.830;9.262;2022-08-19T08:46:17;98228.78;;;21.03;71.61
7760;BME280;3924;48.830;9.262;2022-08-19T08:52:08;98225.53;;;21.21;71.70
7760;BME280;3924;48.830;9.262;2022-08-19T08:54:42;98224.84;;;21.27;71.05
7760;BME280;3924;48.830;9.262;2022-08-19T09:00:12;98236.16;;;21.45;70.99
7760;BME280;3924;48.830;9.262;2022-08-19T09:02:41;98239.19;;;21.37;70.96
7760;BME280;3924;48.830;9.262;2022-08-19T09:05:10;98243.28;;;21.23;71.90
7760;BME280;3924;48.830;9.262;2022-08-19T09:08:06;98243.59;;;21.18;72.10
7760;BME280;3924;48.830;9.262;2022-08-19T09:10:53;98246.66;;;21.13;72.19
7760;BME280;3924;48.830;9.262;2022-08-19T09:13:27;98249.38;;;21.10;72.75
7760;BME280;3924;48.830;9.262;2022-08-19T09:16:13;98241.03;;;21.06;72.72
7760;BME280;3924;48.830;9.262;2022-08-19T09:18:44;98245.44;;;21.11;72.82
7760;BME280;3924;48.830;9.262;2022-08-19T09:21:14;98245.06;;;21.12;72.58
7760;BME280;3924;48.830;9.262;2022-08-19T09:23:42;98250.97;;;21.11;73.46
7760;BME280;3924;48.830;9.262;2022-08-19T09:26:16;98247.03;;;21.12;72.62
7760;BME280;3924;48.830;9.262;2022-08-19T09:28:47;98250.53;;;21.09;73.15
7760;BME280;3924;48.830;9.262;2022-08-19T09:31:17;98247.28;;;21.03;72.91
7760;BME280;3924;48.830;9.262;2022-08-19T09:33:45;98250.44;;;21.01;73.11
7760;BME280;3924;48.830;9.262;2022-08-19T09:36:13;98244.91;;;21.01;73.03
7760;BME280;3924;48.830;9.262;2022-08-19T09:39:00;98248.09;;;21.03;73.31
7760;BME280;3924;48.830;9.262;2022-08-19T09:41:27;98247.69;;;21.01;73.23
7760;BME280;3924;48.830;9.262;2022-08-19T09:43:56;98248.06;;;21.00;73.63
7760;BME280;3924;48.830;9.262;2022-08-19T09:46:27;98248.06;;;21.00;73.54
7760;BME280;3924;48.830;9.262;2022-08-19T09:48:57;98254.34;;;21.00;74.10
7760;BME280;3924;48.830;9.262;2022-08-19T09:51:33;98248.06;;;21.00;73.74
7760;BME280;3924;48.830;9.262;2022-08-19T09:54:02;98254.34;;;21.00;74.35
7760;BME280;3924;48.830;9.262;2022-08-19T09:56:31;98257.47;;;20.99;74.53
7760;BME280;3924;48.830;9.262;2022-08-19T09:59:00;98264.50;;;20.96;74.10
7760;BME280;3924;48.830;9.262;2022-08-19T10:01:28;98255.81;;;20.94;74.32
7760;BME280;3924;48.830;9.262;2022-08-19T10:03:57;98258.13;;;20.92;74.48
7760;BME280;3924;48.830;9.262;2022-08-19T10:06:26;98254.16;;;20.90;74.51
7760;BME280;3924;48.830;9.262;2022-08-19T10:09:12;98262.06;;;20.91;75.10
7760;BME280;3924;48.830;9.262;2022-08-19T10:11:40;98254.97;;;20.90;74.88
7760;BME280;3924;48.830;9.262;2022-08-19T10:14:18;98252.19;;;20.90;75.25
7760;BME280;3924;48.830;9.262;2022-08-19T10:16:48;98246.28;;;20.88;75.14
7760;BME280;3924;48.830;9.262;2022-08-19T10:19:15;98257.31;;;20.88;75.35
7760;BME280;3924;48.830;9.262;2022-08-19T10:21:51;98253.38;;;20.89;75.30
7760;BME280;3924;48.830;9.262;2022-08-19T10:24:18;98241.66;;;20.96;75.05
7760;BME280;3924;48.830;9.262;2022-08-19T10:26:46;98243.75;;;21.02;75.19
7760;BME280;3924;48.830;9.262;2022-08-19T10:29:25;98246.19;;;21.08;75.02
7760;BME280;3924;48.830;9.262;2022-08-19T10:32:02;98243.09;;;21.13;75.18
7760;BME280;3924;48.830;9.262;2022-08-19T10:34:30;98242.38;;;21.16;74.63
7760;BME280;3924;48.830;9.262;2022-08-19T10:36:57;98240.47;;;21.20;75.21
7760;BME280;3924;48.830;9.262;2022-08-19T10:39:27;98232.63;;;21.22;75.52
7760;BME280;3924;48.830;9.262;2022-08-19T10:42:09;98227.94;;;21.26;75.02
7760;BME280;3924;48.830;9.262;2022-08-19T10:44:37;98227.94;;;21.26;75.16
7760;BME280;3924;48.830;9.262;2022-08-19T10:47:03;98227.16;;;21.25;75.56
7760;BME280;3924;48.830;9.262;2022-08-19T10:49:43;98233.06;;;21.24;75.45
7760;BME280;3924;48.830;9.262;2022-08-19T10:52:28;98231.50;;;21.26;75.09
7760;BME280;3924;48.830;9.262;2022-08-19T10:55:06;98240.56;;;21.27;75.38
7760;BME280;3924;48.830;9.262;2022-08-19T10:57:55;98239.78;;;21.26;75.14
7760;BME280;3924;48.830;9.262;2022-08-19T11:00:28;98239.88;;;21.30;75.10
7760;BME280;3924;48.830;9.262;2022-08-19T11:02:57;98239.13;;;21.33;75.11
7760;BME280;3924;48.830;9.262;2022-08-19T11:05:23;98245.50;;;21.37;75.02
7760;BME280;3924;48.830;9.262;2022-08-19T11:07:50;98242.41;;;21.42;75.04
7760;BME280;3924;48.830;9.262;2022-08-19T11:10:18;98246.00;;;21.46;75.35
7760;BME280;3924;48.830;9.262;2022-08-19T11:12:47;98242.53;;;21.49;75.05
7760;BME280;3924;48.830;9.262;2022-08-19T11:15:15;98238.63;;;21.54;75.50
7760;BME280;3924;48.830;9.262;2022-08-19T11:17:41;98231.59;;;21.56;75.21
7760;BME280;3924;48.830;9.262;2022-08-19T11:20:11;98228.91;;;21.64;75.50
7760;BME280;3924;48.830;9.262;2022-08-19T11:22:38;98235.34;;;21.75;74.81
7760;BME280;3924;48.830;9.262;2022-08-19T11:25:09;98238.25;;;21.85;74.74
7760;BME280;3924;48.830;9.262;2022-08-19T11:27:39;98224.16;;;21.91;75.23
7760;BME280;3924;48.830;9.262;2022-08-19T11:30:09;98225.75;;;21.95;75.19
7760;BME280;3924;48.830;9.262;2022-08-19T11:32:41;98219.09;;;21.96;74.89
7760;BME280;3924;48.830;9.262;2022-08-19T11:35:15;98220.69;;;21.97;74.87
7760;BME280;3924;48.830;9.262;2022-08-19T11:37:42;98228.97;;;21.97;74.96
7760;BME280;3924;48.830;9.262;2022-08-19T11:40:09;98235.22;;;21.94;74.94
7760;BME280;3924;48.830;9.262;2022-08-19T11:42:36;98232.44;;;21.91;75.37
7760;BME280;3924;48.830;9.262;2022-08-19T11:45:26;98231.16;;;21.84;75.74
7760;BME280;3924;48.830;9.262;2022-08-19T11:47:53;98229.09;;;21.78;75.62
7760;BME280;3924;48.830;9.262;2022-08-19T11:50:21;98233.75;;;21.70;76.17
7760;BME280;3924;48.830;9.262;2022-08-19T11:52:50;98236.03;;;21.65;76.72
7760;BME280;3924;48.830;9.262;2022-08-19T11:55:17;98230.44;;;21.61;76.66
7760;BME280;3924;48.830;9.262;2022-08-19T11:57:44;98235.56;;;21.59;76.87
7760;BME280;3924;48.830;9.262;2022-08-19T12:00:10;98232.41;;;21.61;76.38
7760;BME280;3924;48.830;9.262;2022-08-19T12:02:39;98229.31;;;21.62;76.65
7760;BME280;3924;48.830;9.262;2022-08-19T12:05:07;98239.50;;;21.62;76.20
7760;BME280;3924;48.830;9.262;2022-08-19T12:07:38;98233.19;;;21.61;76.46
7760;BME280;3924;48.830;9.262;2022-08-19T12:10:06;98234.00;;;21.62;76.38
7760;BME280;3924;48.830;9.262;2022-08-19T12:12:33;98239.50;;;21.62;75.95
7760;BME280;3924;48.830;9.262;2022-08-19T12:15:00;98230.09;;;21.63;76.04
7760;BME280;3924;48.830;9.262;2022-08-19T12:17:26;98220.59;;;21.60;76.75
7760;BME280;3924;48.830;9.262;2022-08-19T12:19:53;98223.72;;;21.58;76.32
7760;BME280;3924;48.830;9.262;2022-08-19T12:22:20;98219.78;;;21.60;76.37
7760;BME280;3924;48.830;9.262;2022-08-19T12:24:47;98210.34;;;21.61;75.92
7760;BME280;3924;48.830;9.262;2022-08-19T12:27:16;98222.22;;;21.65;76.63
7760;BME280;3924;48.830;9.262;2022-08-19T12:30:04;98219.94;;;21.70;76.44
7760;BME280;3924;48.830;9.262;2022-08-19T12:32:31;98223.19;;;21.76;76.25
7760;BME280;3924;48.830;9.262;2022-08-19T12:34:58;98228.41;;;21.84;75.93
7760;BME280;3924;48.830;9.262;2022-08-19T12:37:24;98226.13;;;21.90;76.14
7760;BME280;3924;48.830;9.262;2022-08-19T12:39:51;98223.00;;;21.95;76.63
7760;BME280;3924;48.830;9.262;2022-08-19T12:42:17;98222.66;;;21.97;75.91
7760;BME280;3924;48.830;9.262;2022-08-19T12:44:45;98217.91;;;21.97;76.12
7760;BME280;3924;48.830;9.262;2022-08-19T12:47:12;98223.44;;;21.97;75.68
7760;BME280;3924;48.830;9.262;2022-08-19T12:49:41;98224.97;;;21.95;76.24
7760;BME280;3924;48.830;9.262;2022-08-19T12:52:22;98221.78;;;21.93;76.56
7760;BME280;3924;48.830;9.262;2022-08-19T12:54:51;98225.31;;;21.90;76.62
7760;BME280;3924;48.830;9.262;2022-08-19T12:57:21;98229.59;;;21.87;76.47
7760;BME280;3924;48.830;9.262;2022-08-19T13:00:06;98231.53;;;21.83;76.16
7760;BME280;3924;48.830;9.262;2022-08-19T13:02:38;98235.00;;;21.76;77.17
7760;BME280;3924;48.830;9.262;2022-08-19T13:05:06;98232.56;;;21.71;76.78
7760;BME280;3924;48.830;9.262;2022-08-19T13:07:35;98236.50;;;21.70;77.17
7760;BME280;3924;48.830;9.262;2022-08-19T13:10:04;98230.19;;;21.70;77.12
7760;BME280;3924;48.830;9.262;2022-08-19T13:12:31;98247.47;;;21.67;77.30
7760;BME280;3924;48.830;9.262;2022-08-19T13:14:57;98249.03;;;21.64;77.44
7760;BME280;3924;48.830;9.262;2022-08-19T13:17:25;98248.56;;;21.58;77.77
7760;BME280;3924;48.830;9.262;2022-08-19T13:19:51;98250.44;;;21.54;78.12
7760;BME280;3924;48.830;9.262;2022-08-19T13:22:18;98242.94;;;21.51;77.90
7760;BME280;3924;48.830;9.262;2022-08-19T13:24:45;98243.31;;;21.50;78.44
7760;BME280;3924;48.830;9.262;2022-08-19T13:27:13;98240.94;;;21.48;78.65
7760;BME280;3924;48.830;9.262;2022-08-19T13:29:41;98247.28;;;21.52;78.41
7760;BME280;3924;48.830;9.262;2022-08-19T13:32:26;98252.06;;;21.55;78.80
7760;BME280;3924;48.830;9.262;2022-08-19T13:35:14;98246.97;;;21.57;78.38
7760;BME280;3924;48.830;9.262;2022-08-19T13:37:42;98248.16;;;21.60;79.33
7760;BME280;3924;48.830;9.262;2022-08-19T13:40:21;98250.56;;;21.62;78.76
7760;BME280;3924;48.830;9.262;2022-08-19T13:42:51;98252.16;;;21.63;78.85
7760;BME280;3924;48.830;9.262;2022-08-19T13:45:24;98250.56;;;21.62;79.06
7760;BME280;3924;48.830;9.262;2022-08-19T13:47:52;98244.63;;;21.60;78.79